createdAt,value
2018-07-07T00:00:23.053Z,100798.38
2018-07-07T00:02:51.631Z,100799.02
2018-07-07T00:05:20.220Z,100802.20
2018-07-07T00:07:48.912Z,100796.33
2018-07-07T00:10:17.808Z,100796.66
2018-07-07T00:12:46.520Z,100797.86
2018-07-07T00:15:17.508Z,100798.31
2018-07-07T00:17:46.888Z,100802.29
2018-07-07T00:20:16.200Z,100803.05
2018-07-07T00:22:45.237Z,100804.88
2018-07-07T00:25:16.048Z,100802.84
2018-07-07T00:27:45.684Z,100807.23
2018-07-07T00:30:14.384Z,100801.95
2018-07-07T00:32:43.144Z,100800.30
2018-07-07T00:35:11.813Z,100797.83
2018-07-07T00:37:40.664Z,100794.83
2018-07-07T00:40:10.100Z,100797.59
2018-07-07T00:42:39.281Z,100792.70
2018-07-07T00:45:08.008Z,100795.70
2018-07-07T00:47:36.733Z,100798.38
2018-07-07T00:50:06.306Z,100800.14
2018-07-07T00:52:35.124Z,100796.67
2018-07-07T00:55:04.641Z,100802.45
2018-07-07T00:57:33.228Z,100800.53
2018-07-07T01:00:01.859Z,100803.54
2018-07-07T01:02:30.443Z,100800.00
2018-07-07T01:04:59.001Z,100804.63
2018-07-07T01:07:27.680Z,100798.48
2018-07-07T01:09:56.231Z,100800.47
2018-07-07T01:12:24.853Z,100803.56
2018-07-07T01:14:53.404Z,100797.47
2018-07-07T01:17:21.940Z,100805.84
2018-07-07T01:19:57.008Z,100806.29
2018-07-07T01:22:25.608Z,100807.98
2018-07-07T01:24:54.240Z,100804.81
2018-07-07T01:27:22.801Z,100803.37
2018-07-07T01:29:51.404Z,100803.23
2018-07-07T01:32:20.017Z,100807.27
2018-07-07T01:34:48.600Z,100806.72
2018-07-07T01:37:17.444Z,100809.06
2018-07-07T01:39:46.092Z,100805.38
2018-07-07T01:42:14.725Z,100803.44
2018-07-07T01:44:43.298Z,100802.98
2018-07-07T01:47:11.883Z,100801.00
2018-07-07T01:49:40.520Z,100797.01
2018-07-07T01:52:09.065Z,100801.86
2018-07-07T01:54:37.680Z,100801.03
2018-07-07T01:57:06.272Z,100801.18
2018-07-07T01:59:35.012Z,100807.23
2018-07-07T02:02:03.725Z,100806.19
2018-07-07T02:04:32.372Z,100797.01
2018-07-07T02:07:00.960Z,100795.95
2018-07-07T02:09:29.592Z,100796.34
2018-07-07T02:11:58.149Z,100796.13
2018-07-07T02:14:26.712Z,100797.61
2018-07-07T02:16:55.376Z,100798.27
2018-07-07T02:19:23.993Z,100797.79
2018-07-07T02:21:52.549Z,100795.86
2018-07-07T02:24:21.108Z,100796.77
2018-07-07T02:26:49.701Z,100795.95
2018-07-07T02:29:18.355Z,100797.13
2018-07-07T02:31:47.180Z,100796.50
2018-07-07T02:34:15.799Z,100798.88
2018-07-07T02:36:44.541Z,100793.45
2018-07-07T02:39:13.180Z,100798.97
2018-07-07T02:41:41.718Z,100801.16
2018-07-07T02:44:10.373Z,100796.53
2018-07-07T02:46:38.968Z,100799.41
2018-07-07T02:49:07.624Z,100790.98
2018-07-07T02:51:36.277Z,100793.81
2018-07-07T02:54:04.809Z,100799.73
2018-07-07T02:56:33.680Z,100795.63
2018-07-07T02:59:02.229Z,100804.38
2018-07-07T03:01:30.833Z,100803.13
2018-07-07T03:03:59.421Z,100803.72
2018-07-07T03:06:28.064Z,100805.80
2018-07-07T03:08:56.852Z,100808.73
2018-07-07T03:11:25.520Z,100807.21
2018-07-07T03:13:54.161Z,100808.44
2018-07-07T03:16:22.833Z,100811.13
2018-07-07T03:18:51.408Z,100810.64
2018-07-07T03:21:20.124Z,100817.15
2018-07-07T03:23:48.684Z,100816.20
2018-07-07T03:26:17.294Z,100812.53
2018-07-07T03:28:46.024Z,100811.73
2018-07-07T03:31:14.704Z,100820.11
2018-07-07T03:33:43.521Z,100827.84
2018-07-07T03:36:12.272Z,100825.92
2018-07-07T03:38:40.896Z,100824.11
2018-07-07T03:41:09.493Z,100826.06
2018-07-07T03:43:38.060Z,100824.88
2018-07-07T03:46:07.131Z,100823.92
2018-07-07T03:48:35.900Z,100829.55
2018-07-07T03:51:04.509Z,100838.27
2018-07-07T03:53:33.218Z,100841.23
2018-07-07T03:56:01.781Z,100841.05
2018-07-07T03:58:30.440Z,100841.98
2018-07-07T04:00:59.077Z,100843.48
2018-07-07T04:03:27.648Z,100838.45
2018-07-07T04:05:56.280Z,100844.45
2018-07-07T04:08:24.884Z,100846.99
2018-07-07T04:10:53.490Z,100852.28
2018-07-07T04:13:22.204Z,100848.63
2018-07-07T04:15:50.736Z,100846.97
2018-07-07T04:18:31.384Z,100846.00
2018-07-07T04:21:00.327Z,100847.05
2018-07-07T04:23:29.004Z,100851.13
2018-07-07T04:25:57.568Z,100845.67
2018-07-07T04:28:26.436Z,100851.69
2018-07-07T04:30:55.037Z,100850.37
2018-07-07T04:33:23.609Z,100859.11
2018-07-07T04:35:52.469Z,100859.12
2018-07-07T04:38:21.119Z,100853.44
2018-07-07T04:40:50.033Z,100854.09
2018-07-07T04:43:19.273Z,100853.94
2018-07-07T04:45:48.276Z,100855.14
2018-07-07T04:48:17.189Z,100852.38
2018-07-07T04:50:45.808Z,100855.06
2018-07-07T04:53:14.461Z,100851.21
2018-07-07T04:55:43.156Z,100852.55
2018-07-07T04:58:11.848Z,100856.27
2018-07-07T05:00:40.472Z,100851.20
2018-07-07T05:03:10.140Z,100850.08
2018-07-07T05:05:38.805Z,100860.85
2018-07-07T05:08:07.357Z,100863.64
2018-07-07T05:10:35.967Z,100861.09
2018-07-07T05:13:04.622Z,100866.38
2018-07-07T05:15:33.287Z,100866.13
2018-07-07T05:18:01.792Z,100859.92
2018-07-07T05:20:30.456Z,100867.84
2018-07-07T05:22:59.028Z,100861.95
2018-07-07T05:25:27.884Z,100867.02
2018-07-07T05:27:56.548Z,100865.66
2018-07-07T05:30:25.144Z,100869.03
2018-07-07T05:32:53.864Z,100867.37
2018-07-07T05:35:22.550Z,100870.09
2018-07-07T05:37:51.157Z,100869.74
2018-07-07T05:40:19.792Z,100866.05
2018-07-07T05:42:48.400Z,100871.52
2018-07-07T05:45:17.020Z,100871.64
2018-07-07T05:47:45.632Z,100874.06
2018-07-07T05:50:14.237Z,100878.39
2018-07-07T05:52:42.812Z,100873.86
2018-07-07T05:55:11.391Z,100877.12
2018-07-07T05:57:40.009Z,100878.98
2018-07-07T06:00:08.602Z,100891.33
2018-07-07T06:02:37.224Z,100884.55
2018-07-07T06:05:06.329Z,100885.63
2018-07-07T06:07:35.000Z,100881.55
2018-07-07T06:10:03.728Z,100883.97
2018-07-07T06:12:32.252Z,100887.55
2018-07-07T06:15:00.824Z,100882.42
2018-07-07T06:17:29.371Z,100877.20
2018-07-07T06:19:57.952Z,100881.85
2018-07-07T06:22:26.620Z,100879.72
2018-07-07T06:24:55.144Z,100885.98
2018-07-07T06:27:23.935Z,100888.56
2018-07-07T06:29:52.559Z,100888.11
2018-07-07T06:32:21.173Z,100892.73
2018-07-07T06:34:49.972Z,100880.46
2018-07-07T06:37:18.622Z,100883.31
2018-07-07T06:39:47.246Z,100883.62
2018-07-07T06:42:15.801Z,100880.30
2018-07-07T06:44:44.564Z,100884.19
2018-07-07T06:47:13.311Z,100882.48
2018-07-07T06:49:41.969Z,100884.22
2018-07-07T06:52:10.584Z,100885.67
2018-07-07T06:54:39.128Z,100884.59
2018-07-07T06:57:07.668Z,100883.16
2018-07-07T06:59:36.312Z,100888.89
2018-07-07T07:02:05.056Z,100888.52
2018-07-07T07:04:33.928Z,100889.39
2018-07-07T07:07:02.547Z,100886.81
2018-07-07T07:09:31.248Z,100883.97
2018-07-07T07:11:59.942Z,100883.30
2018-07-07T07:14:28.589Z,100882.70
2018-07-07T07:16:57.265Z,100882.95
2018-07-07T07:19:25.920Z,100881.95
2018-07-07T07:21:54.529Z,100890.98
2018-07-07T07:24:23.189Z,100883.77
2018-07-07T07:26:53.763Z,100878.38
2018-07-07T07:29:23.530Z,100879.88
2018-07-07T07:31:52.180Z,100881.91
2018-07-07T07:34:20.737Z,100881.27
2018-07-07T07:36:49.433Z,100883.50
2018-07-07T07:39:18.089Z,100877.72
2018-07-07T07:41:46.924Z,100880.98
2018-07-07T07:44:16.146Z,100872.21
2018-07-07T07:46:44.940Z,100867.42
2018-07-07T07:49:13.614Z,100870.89
2018-07-07T07:51:42.172Z,100872.62
2018-07-07T07:54:10.912Z,100871.92
2018-07-07T07:56:39.476Z,100866.61
2018-07-07T07:59:08.056Z,100866.33
2018-07-07T08:01:36.617Z,100865.78
2018-07-07T08:04:05.188Z,100865.04
2018-07-07T08:06:34.012Z,100862.61
2018-07-07T08:09:02.584Z,100860.70
2018-07-07T08:11:31.144Z,100857.63
2018-07-07T08:13:59.764Z,100860.89
2018-07-07T08:16:28.308Z,100856.62
2018-07-07T08:18:56.976Z,100858.48
2018-07-07T08:21:25.495Z,100862.78
2018-07-07T08:23:54.148Z,100864.94
2018-07-07T08:26:22.897Z,100862.28
2018-07-07T08:28:51.432Z,100862.66
2018-07-07T08:31:20.472Z,100856.48
2018-07-07T08:33:49.128Z,100856.59
2018-07-07T08:36:17.721Z,100849.48
2018-07-07T08:38:46.266Z,100847.22
2018-07-07T08:41:15.448Z,100858.42
2018-07-07T08:43:44.048Z,100853.14
2018-07-07T08:46:12.676Z,100853.86
2018-07-07T08:48:41.256Z,100852.63
2018-07-07T08:51:09.962Z,100845.79
2018-07-07T08:53:38.548Z,100846.06
2018-07-07T08:56:07.121Z,100857.09
2018-07-07T08:58:35.651Z,100850.91
2018-07-07T09:01:04.213Z,100853.89
2018-07-07T09:03:32.820Z,100847.41
2018-07-07T09:06:01.393Z,100852.43
2018-07-07T09:08:30.184Z,100853.08
2018-07-07T09:10:58.824Z,100850.86
2018-07-07T09:13:27.376Z,100851.14
2018-07-07T09:15:56.029Z,100839.69
2018-07-07T09:18:24.609Z,100841.55
2018-07-07T09:20:53.196Z,100842.16
2018-07-07T09:23:21.800Z,100835.77
2018-07-07T09:25:50.360Z,100840.41
2018-07-07T09:28:18.931Z,100841.38
2018-07-07T09:30:47.564Z,100834.73
2018-07-07T09:33:16.096Z,100840.91
2018-07-07T09:35:44.672Z,100835.71
2018-07-07T09:38:13.264Z,100831.25
2018-07-07T09:40:41.842Z,100834.57
2018-07-07T09:43:10.460Z,100830.58
2018-07-07T09:45:39.288Z,100828.00
2018-07-07T09:48:08.047Z,100832.84
2018-07-07T09:50:36.643Z,100825.66
2018-07-07T09:53:05.484Z,100829.17
2018-07-07T09:55:34.061Z,100827.16
2018-07-07T09:58:02.940Z,100832.23
2018-07-07T10:00:36.849Z,100829.02
2018-07-07T10:03:05.706Z,100825.33
2018-07-07T10:05:34.352Z,100827.56
2018-07-07T10:08:03.012Z,100830.58
2018-07-07T10:10:32.062Z,100822.73
2018-07-07T10:13:00.653Z,100823.33
2018-07-07T10:15:29.406Z,100822.88
2018-07-07T10:17:58.028Z,100813.09
2018-07-07T10:20:27.084Z,100813.52
2018-07-07T10:22:56.007Z,100811.98
2018-07-07T10:25:24.588Z,100810.57
2018-07-07T10:27:53.363Z,100806.94
2018-07-07T10:30:21.969Z,100802.66
2018-07-07T10:32:50.581Z,100804.41
2018-07-07T10:35:19.321Z,100799.16
2018-07-07T10:37:47.956Z,100799.84
2018-07-07T10:40:16.603Z,100802.52
2018-07-07T10:42:45.272Z,100801.03
2018-07-07T10:45:13.965Z,100799.47
2018-07-07T10:47:42.580Z,100791.33
2018-07-07T10:50:11.252Z,100787.27
2018-07-07T10:52:40.103Z,100787.34
2018-07-07T10:55:08.652Z,100793.76
2018-07-07T10:57:37.232Z,100789.66
2018-07-07T11:00:06.804Z,100783.20
2018-07-07T11:02:35.487Z,100777.38
2018-07-07T11:05:04.219Z,100774.23
2018-07-07T11:07:32.966Z,100770.41
2018-07-07T11:10:01.550Z,100773.84
2018-07-07T11:12:30.118Z,100769.80
2018-07-07T11:14:58.751Z,100767.89
2018-07-07T11:17:27.402Z,100764.21
2018-07-07T11:19:56.291Z,100766.20
2018-07-07T11:22:24.796Z,100766.37
2018-07-07T11:24:53.906Z,100765.31
2018-07-07T11:27:22.440Z,100758.16
2018-07-07T11:29:51.130Z,100759.36
2018-07-07T11:32:19.640Z,100764.84
2018-07-07T11:34:48.248Z,100759.79
2018-07-07T11:37:16.864Z,100756.02
2018-07-07T11:39:45.928Z,100756.74
2018-07-07T11:42:15.019Z,100754.87
2018-07-07T11:44:43.540Z,100757.06
2018-07-07T11:47:12.148Z,100751.91
2018-07-07T11:49:40.752Z,100755.69
2018-07-07T11:52:09.561Z,100750.88
2018-07-07T11:54:38.264Z,100751.00
2018-07-07T11:57:06.949Z,100750.39
2018-07-07T11:59:35.472Z,100750.95
2018-07-07T12:02:04.152Z,100756.72
2018-07-07T12:04:32.799Z,100746.45
2018-07-07T12:07:01.576Z,100754.70
2018-07-07T12:09:30.249Z,100746.16
2018-07-07T12:11:58.940Z,100747.35
2018-07-07T12:14:27.585Z,100744.76
2018-07-07T12:16:56.258Z,100740.15
2018-07-07T12:19:25.331Z,100742.17
2018-07-07T12:21:54.040Z,100732.09
2018-07-07T12:24:22.581Z,100733.33
2018-07-07T12:26:51.185Z,100724.43
2018-07-07T12:29:19.992Z,100729.30
2018-07-07T12:31:48.684Z,100727.38
2018-07-07T12:34:17.222Z,100726.98
2018-07-07T12:36:45.845Z,100721.66
2018-07-07T12:39:14.460Z,100728.55
2018-07-07T12:41:43.092Z,100724.01
2018-07-07T12:44:11.970Z,100722.84
2018-07-07T12:46:40.616Z,100716.50
2018-07-07T12:49:09.740Z,100716.18
2018-07-07T12:51:38.382Z,100715.33
2018-07-07T12:54:07.029Z,100722.80
2018-07-07T12:56:35.963Z,100720.52
2018-07-07T12:59:04.560Z,100715.99
2018-07-07T13:01:33.325Z,100710.83
2018-07-07T13:04:01.935Z,100705.63
2018-07-07T13:06:30.544Z,100708.41
2018-07-07T13:08:59.445Z,100714.39
2018-07-07T13:11:28.104Z,100715.39
2018-07-07T13:13:56.731Z,100714.03
2018-07-07T13:16:25.340Z,100711.66
2018-07-07T13:18:53.946Z,100719.02
2018-07-07T13:21:22.719Z,100704.16
2018-07-07T13:23:51.349Z,100710.03
2018-07-07T13:26:20.063Z,100705.37
2018-07-07T13:28:48.705Z,100706.48
2018-07-07T13:31:17.260Z,100707.73
2018-07-07T13:33:46.049Z,100719.88
2018-07-07T13:36:14.592Z,100715.45
2018-07-07T13:38:43.283Z,100714.77
2018-07-07T13:41:11.800Z,100709.84
2018-07-07T13:43:40.500Z,100708.34
2018-07-07T13:46:09.413Z,100706.34
2018-07-07T13:48:38.018Z,100705.16
2018-07-07T13:51:06.742Z,100705.70
2018-07-07T13:53:35.484Z,100708.78
2018-07-07T13:56:04.120Z,100697.50
2018-07-07T13:58:33.059Z,100704.17
2018-07-07T14:01:01.657Z,100698.49
2018-07-07T14:03:30.172Z,100696.59
2018-07-07T14:05:58.768Z,100703.44
2018-07-07T14:08:27.578Z,100697.96
2018-07-07T14:10:56.212Z,100710.55
2018-07-07T14:13:24.844Z,100707.17
2018-07-07T14:15:53.442Z,100700.38
2018-07-07T14:18:22.104Z,100704.92
2018-07-07T14:20:50.680Z,100700.65
2018-07-07T14:23:19.697Z,100705.70
2018-07-07T14:25:48.360Z,100701.55
2018-07-07T14:28:16.936Z,100707.50
2018-07-07T14:30:45.588Z,100710.75
2018-07-07T14:33:14.260Z,100703.59
2018-07-07T14:35:42.984Z,100698.38
2018-07-07T14:38:11.624Z,100703.12
2018-07-07T14:41:23.386Z,100707.41
2018-07-07T14:43:59.022Z,100692.85
2018-07-07T14:46:28.068Z,100691.69
2018-07-07T14:48:56.712Z,100697.61
2018-07-07T14:51:25.300Z,100694.44
2018-07-07T14:53:54.059Z,100696.16
2018-07-07T14:56:24.044Z,100692.73
2018-07-07T14:58:52.900Z,100694.75
2018-07-07T15:01:21.449Z,100692.00
2018-07-07T15:03:50.132Z,100692.55
2018-07-07T15:06:18.739Z,100690.80
2018-07-07T15:08:47.417Z,100687.00
2018-07-07T15:11:16.076Z,100687.21
2018-07-07T15:13:47.196Z,100689.77
2018-07-07T15:16:15.828Z,100687.08
2018-07-07T15:18:45.124Z,100688.66
2018-07-07T15:21:13.692Z,100690.09
2018-07-07T15:23:42.329Z,100688.37
2018-07-07T15:26:10.908Z,100692.16
2018-07-07T15:28:39.568Z,100688.13
2018-07-07T15:31:08.196Z,100689.61
2018-07-07T15:33:36.772Z,100684.70
2018-07-07T15:36:05.489Z,100685.36
2018-07-07T15:38:34.014Z,100688.77
2018-07-07T15:41:02.820Z,100690.13
2018-07-07T15:43:31.340Z,100678.92
2018-07-07T15:45:59.974Z,100688.55
2018-07-07T15:48:28.605Z,100685.71
2018-07-07T15:50:57.286Z,100684.78
2018-07-07T15:53:26.130Z,100684.08
2018-07-07T15:55:54.658Z,100685.25
2018-07-07T15:58:23.197Z,100681.57
2018-07-07T16:00:51.942Z,100687.72
2018-07-07T16:03:20.618Z,100679.31
2018-07-07T16:05:49.396Z,100680.20
2018-07-07T16:08:18.064Z,100682.90
2018-07-07T16:10:46.690Z,100674.97
2018-07-07T16:13:15.301Z,100672.75
2018-07-07T16:15:43.988Z,100678.92
2018-07-07T16:18:12.681Z,100677.97
2018-07-07T16:20:41.232Z,100675.36
2018-07-07T16:23:09.903Z,100669.72
2018-07-07T16:25:38.557Z,100666.16
2018-07-07T16:28:07.216Z,100665.00
2018-07-07T16:30:35.804Z,100659.77
2018-07-07T16:33:04.476Z,100659.48
2018-07-07T16:35:33.132Z,100665.04
2018-07-07T16:38:01.971Z,100664.64
2018-07-07T16:40:30.571Z,100661.13
2018-07-07T16:43:00.474Z,100661.13
2018-07-07T16:45:29.161Z,100662.30
2018-07-07T16:47:57.760Z,100659.77
2018-07-07T16:50:26.428Z,100663.33
2018-07-07T16:52:55.064Z,100659.79
2018-07-07T16:55:23.959Z,100658.12
2018-07-07T16:57:52.587Z,100655.12
2018-07-07T17:00:21.315Z,100658.95
2018-07-07T17:02:50.844Z,100657.49
2018-07-07T17:05:19.464Z,100654.94
2018-07-07T17:07:48.612Z,100650.39
2018-07-07T17:10:17.892Z,100655.45
2018-07-07T17:12:46.900Z,100653.95
2018-07-07T17:15:15.536Z,100659.33
2018-07-07T17:17:44.228Z,100656.40
2018-07-07T17:20:12.952Z,100660.30
2018-07-07T17:22:41.656Z,100653.58
2018-07-07T17:25:10.866Z,100647.91
2018-07-07T17:27:40.068Z,100652.70
2018-07-07T17:30:08.832Z,100657.00
2018-07-07T17:32:37.472Z,100653.75
2018-07-07T17:35:06.373Z,100653.72
2018-07-07T17:37:35.200Z,100657.26
2018-07-07T17:40:03.857Z,100656.91
2018-07-07T17:42:32.845Z,100666.45
2018-07-07T17:45:02.469Z,100665.45
2018-07-07T17:47:31.148Z,100665.72
2018-07-07T17:50:02.057Z,100662.55
2018-07-07T17:52:32.021Z,100667.60
2018-07-07T17:55:01.574Z,100672.48
2018-07-07T17:57:30.180Z,100665.55
2018-07-07T17:59:58.840Z,100672.12
2018-07-07T18:02:27.797Z,100669.58
2018-07-07T18:04:56.637Z,100667.79
2018-07-07T18:07:25.583Z,100673.12
2018-07-07T18:09:54.396Z,100676.78
2018-07-07T18:12:23.149Z,100682.34
2018-07-07T18:14:51.722Z,100677.67
2018-07-07T18:17:20.372Z,100676.67
2018-07-07T18:19:48.908Z,100677.89
2018-07-07T18:22:17.552Z,100682.20
2018-07-07T18:24:46.112Z,100679.37
2018-07-07T18:27:14.756Z,100678.39
2018-07-07T18:29:43.304Z,100681.66
2018-07-07T18:32:11.868Z,100681.87
2018-07-07T18:34:40.452Z,100684.67
2018-07-07T18:37:09.056Z,100684.67
2018-07-07T18:39:37.757Z,100691.89
2018-07-07T18:42:06.632Z,100687.51
2018-07-07T18:44:35.284Z,100685.20
2018-07-07T18:47:03.896Z,100688.37
2018-07-07T18:49:32.542Z,100686.83
2018-07-07T18:52:01.302Z,100684.78
2018-07-07T18:54:29.905Z,100694.98
2018-07-07T18:56:58.652Z,100691.80
2018-07-07T18:59:27.418Z,100688.67
2018-07-07T19:01:56.134Z,100691.55
2018-07-07T19:04:24.738Z,100690.52
2018-07-07T19:06:53.297Z,100689.56
2018-07-07T19:09:21.876Z,100687.97
2018-07-07T19:11:50.584Z,100689.16
2018-07-07T19:14:19.215Z,100690.09
2018-07-07T19:16:48.009Z,100691.81
2018-07-07T19:19:16.644Z,100697.80
2018-07-07T19:21:50.367Z,100695.10
2018-07-07T19:24:24.164Z,100703.14
2018-07-07T19:26:53.992Z,100707.09
2018-07-07T19:29:23.605Z,100704.77
2018-07-07T19:31:57.516Z,100705.70
2018-07-07T19:34:31.484Z,100707.45
2018-07-07T19:37:05.405Z,100710.12
2018-07-07T19:39:34.004Z,100708.20
2018-07-07T19:42:02.857Z,100715.73
2018-07-07T19:44:31.436Z,100711.00
2018-07-07T19:47:00.022Z,100720.69
2018-07-07T19:49:28.650Z,100715.69
2018-07-07T19:51:57.300Z,100727.13
2018-07-07T19:54:25.901Z,100726.41
2018-07-07T19:56:54.488Z,100732.19
2018-07-07T19:59:23.036Z,100730.86
2018-07-07T20:01:51.704Z,100733.70
2018-07-07T20:04:20.236Z,100735.12
2018-07-07T20:06:48.889Z,100740.70
2018-07-07T20:09:17.805Z,100737.00
2018-07-07T20:11:46.697Z,100738.50
2018-07-07T20:14:21.072Z,100733.97
2018-07-07T20:17:08.757Z,100737.27
2018-07-07T20:19:53.996Z,100740.89
2018-07-07T20:22:22.573Z,100738.61
2018-07-07T20:24:51.160Z,100739.16
2018-07-07T20:27:24.897Z,100739.91
2018-07-07T20:29:53.532Z,100738.41
2018-07-07T20:32:27.256Z,100742.78
2018-07-07T20:34:55.913Z,100746.25
2018-07-07T20:37:24.450Z,100742.47
2018-07-07T20:39:53.069Z,100749.92
2018-07-07T20:42:21.729Z,100750.90
2018-07-07T20:44:50.311Z,100743.75
2018-07-07T20:47:19.264Z,100748.05
2018-07-07T20:49:47.901Z,100750.62
2018-07-07T20:52:16.576Z,100746.86
2018-07-07T20:54:45.180Z,100746.84
2018-07-07T20:57:13.754Z,100742.66
2018-07-07T20:59:42.604Z,100740.58
2018-07-07T21:02:11.144Z,100743.55
2018-07-07T21:04:39.712Z,100745.34
2018-07-07T21:07:08.248Z,100750.03
2018-07-07T21:09:36.864Z,100744.67
2018-07-07T21:12:05.503Z,100749.23
2018-07-07T21:14:34.128Z,100747.02
2018-07-07T21:17:02.696Z,100749.38
2018-07-07T21:19:31.348Z,100744.30
2018-07-07T21:22:00.073Z,100748.57
2018-07-07T21:24:28.644Z,100749.19
2018-07-07T21:26:57.227Z,100755.09
2018-07-07T21:29:25.904Z,100752.19
2018-07-07T21:31:54.496Z,100749.78
2018-07-07T21:34:23.136Z,100747.19
2018-07-07T21:36:51.825Z,100755.34
2018-07-07T21:39:20.829Z,100757.45
2018-07-07T21:41:49.369Z,100756.59
2018-07-07T21:44:18.082Z,100753.00
2018-07-07T21:46:46.692Z,100752.30
2018-07-07T21:49:15.293Z,100752.80
2018-07-07T21:51:43.908Z,100754.09
2018-07-07T21:54:12.488Z,100756.44
2018-07-07T21:56:41.115Z,100766.09
2018-07-07T21:59:14.992Z,100758.14
2018-07-07T22:01:56.140Z,100767.86
2018-07-07T22:04:30.762Z,100762.42
2018-07-07T22:07:05.004Z,100768.77
2018-07-07T22:09:34.604Z,100764.83
2018-07-07T22:12:03.641Z,100770.84
2018-07-07T22:14:32.618Z,100764.75
2018-07-07T22:17:01.189Z,100770.23
2018-07-07T22:19:29.788Z,100769.88
2018-07-07T22:22:05.533Z,100765.60
2018-07-07T22:24:34.435Z,100763.12
2018-07-07T22:27:05.053Z,100770.54
2018-07-07T22:29:34.069Z,100769.44
2018-07-07T22:32:03.970Z,100762.55
2018-07-07T22:34:33.918Z,100761.64
2018-07-07T22:37:02.625Z,100763.02
2018-07-07T22:39:34.728Z,100762.55
2018-07-07T22:42:04.504Z,100757.75
2018-07-07T22:44:34.029Z,100763.74
2018-07-07T22:47:02.745Z,100764.81
2018-07-07T22:49:31.890Z,100766.17
2018-07-07T22:52:00.556Z,100764.93
2018-07-07T22:54:29.162Z,100763.98
2018-07-07T22:56:58.046Z,100764.72
2018-07-07T22:59:26.597Z,100770.23
2018-07-07T23:01:55.246Z,100764.16
2018-07-07T23:04:23.938Z,100774.83
2018-07-07T23:06:52.580Z,100770.06
2018-07-07T23:09:21.274Z,100773.09
2018-07-07T23:11:49.936Z,100774.27
2018-07-07T23:14:18.734Z,100776.66
2018-07-07T23:16:47.313Z,100771.25
2018-07-07T23:19:32.442Z,100776.67
2018-07-07T23:22:17.493Z,100778.49
2018-07-07T23:24:46.037Z,100771.70
2018-07-07T23:27:14.628Z,100778.18
2018-07-07T23:29:43.509Z,100777.11
2018-07-07T23:32:12.156Z,100776.48
2018-07-07T23:34:40.732Z,100778.58
2018-07-07T23:37:09.380Z,100776.23
2018-07-07T23:39:38.000Z,100781.30
2018-07-07T23:42:06.593Z,100779.31
2018-07-07T23:44:35.280Z,100780.19
2018-07-07T23:47:03.893Z,100776.83
2018-07-07T23:49:32.452Z,100780.11
2018-07-07T23:52:01.584Z,100778.03
2018-07-07T23:54:30.221Z,100775.72
2018-07-07T23:56:58.828Z,100775.41
2018-07-07T23:59:27.448Z,100776.40
